Time;durP1;ratioP1;P1;durP2;ratioP2;P2;SDS_P1;SDS_P2;PMS_P1;PMS_P2;Temp;Humidity;BMP_temperature;BMP_pressure;BME280_temperature;BME280_humidity;BME280_pressure;Samples;Min_cycle;Max_cycle;Signal;HPM_P1;HPM_P2
2023/01/09 00:01:21;;;;;;;6.43;5.80;;;9.60;99.90;;;;;;5072594;28;20283;-73
2023/01/09 00:03:47;;;;;;;5.53;5.03;;;9.50;99.90;;;;;;5054811;28;20179;-72
2023/01/09 00:06:13;;;;;;;6.37;5.50;;;9.60;99.90;;;;;;5073299;28;20421;-73
2023/01/09 00:08:39;;;;;;;6.47;5.87;;;9.70;99.90;;;;;;5073091;28;20193;-73
2023/01/09 00:11:04;;;;;;;5.37;4.87;;;9.80;99.90;;;;;;5054904;28;20428;-73
2023/01/09 00:13:30;;;;;;;5.63;5.13;;;9.90;99.90;;;;;;5072731;28;20178;-72
2023/01/09 00:15:56;;;;;;;5.53;5.03;;;9.90;99.90;;;;;;5071031;28;20220;-73
2023/01/09 00:18:21;;;;;;;5.37;4.87;;;9.90;99.90;;;;;;5072688;28;20567;-73
2023/01/09 00:20:47;;;;;;;5.23;4.80;;;9.90;99.90;;;;;;5072386;28;20203;-73
2023/01/09 00:23:12;;;;;;;6.23;5.00;;;10.00;99.90;;;;;;5072236;28;20185;-73
2023/01/09 00:25:38;;;;;;;4.50;4.10;;;9.80;99.90;;;;;;5054769;28;20648;-73
2023/01/09 00:28:03;;;;;;;4.63;4.23;;;9.90;99.90;;;;;;5072981;28;20173;-73
2023/01/09 00:30:29;;;;;;;4.60;4.20;;;10.10;99.90;;;;;;5072502;28;20663;-72
2023/01/09 00:32:55;;;;;;;3.37;3.07;;;10.10;99.90;;;;;;5072895;28;20177;-73
2023/01/09 00:35:23;;;;;;;3.90;3.60;;;10.20;99.90;;;;;;5054814;28;20170;-73
2023/01/09 00:37:48;;;;;;;3.90;3.60;;;10.20;99.90;;;;;;5073101;28;20894;-72
2023/01/09 00:40:16;;;;;;;5.40;3.13;;;10.30;99.90;;;;;;5072872;28;20456;-72
2023/01/09 00:42:44;;;;;;;2.73;2.53;;;10.20;99.90;;;;;;5054350;28;20201;-73
2023/01/09 00:45:15;;;;;;;3.17;2.40;;;10.30;99.90;;;;;;5072191;28;20412;-74
2023/01/09 00:47:46;;;;;;;3.30;3.00;;;10.20;99.90;;;;;;5072438;28;20505;-74
2023/01/09 00:50:17;;;;;;;2.77;2.57;;;10.30;99.90;;;;;;5054289;28;20456;-71
2023/01/09 00:52:44;;;;;;;2.23;1.93;;;10.40;99.90;;;;;;5055192;28;20784;-73
2023/01/09 00:55:10;;;;;;;3.10;2.80;;;10.40;99.90;;;;;;5054273;28;20446;-72
2023/01/09 00:57:36;;;;;;;2.90;2.70;;;10.20;99.90;;;;;;5063794;28;20491;-73
2023/01/09 01:00:02;;;;;;;2.03;1.87;;;10.20;99.90;;;;;;5051370;28;20519;-73
2023/01/09 01:02:28;;;;;;;1.80;1.70;;;10.20;99.90;;;;;;5051537;28;20170;-71
2023/01/09 01:07:37;;;;;;;1.93;1.83;;;10.30;99.90;;;;;;5051888;28;20165;-72
2023/01/09 01:10:15;;;;;;;1.80;1.70;;;10.20;99.90;;;;;;5051567;28;20457;-73
2023/01/09 01:12:41;;;;;;;1.90;1.60;;;10.20;99.90;;;;;;5052104;28;20158;-72
2023/01/09 01:15:07;;;;;;;1.33;1.20;;;10.10;99.90;;;;;;5044079;28;20453;-72
2023/01/09 01:17:35;;;;;;;1.40;1.30;;;10.20;99.90;;;;;;5072425;28;20813;-72
2023/01/09 01:20:01;;;;;;;1.13;1.03;;;10.00;99.90;;;;;;5072041;28;20521;-73
2023/01/09 01:22:27;;;;;;;1.10;1.00;;;9.90;99.90;;;;;;5072429;28;20408;-72
2023/01/09 01:24:52;;;;;;;1.47;1.37;;;9.80;99.90;;;;;;5054532;28;20408;-72
2023/01/09 01:27:18;;;;;;;1.67;1.53;;;9.80;99.90;;;;;;5072599;28;20181;-73
2023/01/09 01:29:43;;;;;;;1.17;1.00;;;9.80;99.90;;;;;;5053633;28;20231;-72
2023/01/09 01:32:10;;;;;;;0.93;0.83;;;9.90;99.90;;;;;;5071613;28;20171;-72
2023/01/09 01:34:36;;;;;;;1.13;1.03;;;9.90;99.90;;;;;;5053889;28;20166;-73
2023/01/09 01:37:02;;;;;;;2.90;0.87;;;9.80;99.90;;;;;;5072152;28;20400;-72
2023/01/09 01:39:27;;;;;;;1.03;0.93;;;9.90;99.90;;;;;;5071916;28;20547;-72
2023/01/09 01:41:53;;;;;;;1.17;1.07;;;9.90;99.90;;;;;;5071841;28;20170;-72
2023/01/09 01:44:55;;;;;;;1.40;0.90;;;9.70;99.90;;;;;;5071705;28;20705;-72
2023/01/09 01:47:27;;;;;;;2.03;1.10;;;9.90;99.90;;;;;;5071514;28;20178;-72
2023/01/09 01:49:52;;;;;;;1.00;0.83;;;9.80;99.90;;;;;;5071807;28;20487;-72
2023/01/09 01:52:19;;;;;;;1.00;0.67;;;9.80;99.90;;;;;;5071853;28;20454;-73
2023/01/09 01:54:45;;;;;;;0.80;0.60;;;9.60;99.90;;;;;;5056132;28;20265;-72
2023/01/09 01:57:11;;;;;;;0.80;0.80;;;9.70;99.90;;;;;;5075703;28;20415;-72
2023/01/09 01:59:48;;;;;;;1.17;0.80;;;9.80;99.90;;;;;;5057238;28;20949;-73
2023/01/09 02:02:22;;;;;;;0.80;0.70;;;9.70;99.90;;;;;;5075035;28;20396;-73
2023/01/09 02:04:50;;;;;;;1.00;0.80;;;9.80;99.90;;;;;;5075465;28;20382;-73
2023/01/09 02:07:16;;;;;;;1.63;0.83;;;9.70;99.90;;;;;;5056472;28;20431;-74
2023/01/09 02:09:45;;;;;;;0.90;0.70;;;9.60;99.90;;;;;;5075527;28;20459;-73
2023/01/09 02:12:24;;;;;;;1.00;0.70;;;9.70;99.90;;;;;;5075824;28;20158;-74
2023/01/09 02:14:57;;;;;;;0.70;0.60;;;9.50;99.90;;;;;;5075552;28;20870;-72
2023/01/09 02:17:44;;;;;;;0.90;0.73;;;9.60;99.90;;;;;;5073165;28;20779;-72
2023/01/09 02:20:30;;;;;;;1.00;0.90;;;9.80;99.90;;;;;;5075069;28;20456;-72
2023/01/09 02:23:34;;;;;;;0.83;0.67;;;9.70;99.90;;;;;;5075983;28;20928;-74
2023/01/09 02:26:05;;;;;;;0.90;0.70;;;9.80;99.90;;;;;;5075135;28;20378;-74
2023/01/09 02:28:36;;;;;;;1.13;0.70;;;10.00;99.90;;;;;;5074685;28;20448;-73
2023/01/09 02:31:18;;;;;;;0.87;0.63;;;10.10;99.90;;;;;;5055987;28;20472;-74
2023/01/09 02:34:08;;;;;;;0.87;0.77;;;9.90;99.90;;;;;;5075308;28;20395;-74
2023/01/09 02:37:11;;;;;;;0.70;0.60;;;9.90;99.90;;;;;;5074715;28;20427;-73
2023/01/09 02:39:48;;;;;;;0.83;0.60;;;9.80;99.90;;;;;;5056312;28;20469;-73
2023/01/09 02:42:20;;;;;;;0.70;0.50;;;9.80;99.90;;;;;;5074490;28;20750;-74
2023/01/09 02:44:45;;;;;;;0.97;0.70;;;9.80;99.90;;;;;;5074683;28;20864;-74
2023/01/09 02:47:14;;;;;;;0.90;0.60;;;9.80;99.90;;;;;;5073937;28;20412;-73
2023/01/09 02:49:42;;;;;;;0.80;0.60;;;9.70;99.90;;;;;;5056565;28;20273;-72
2023/01/09 02:52:14;;;;;;;1.00;0.50;;;9.80;99.90;;;;;;5074836;28;20412;-73
2023/01/09 02:55:00;;;;;;;0.70;0.50;;;9.90;99.90;;;;;;5075127;28;20408;-73
2023/01/09 02:58:03;;;;;;;0.80;0.50;;;9.90;99.90;;;;;;5056744;28;20390;-71
2023/01/09 03:00:40;;;;;;;1.20;0.50;;;9.70;99.90;;;;;;5074172;28;20425;-72
2023/01/09 03:03:18;;;;;;;0.67;0.50;;;9.60;99.90;;;;;;5074154;28;20484;-73
2023/01/09 03:05:53;;;;;;;1.83;0.57;;;9.60;99.90;;;;;;5055644;28;20783;-73
2023/01/09 03:08:22;;;;;;;0.80;0.50;;;9.60;99.90;;;;;;5074033;28;20394;-73
2023/01/09 03:10:59;;;;;;;0.80;0.53;;;9.50;99.90;;;;;;5073938;28;20481;-73
2023/01/09 03:13:29;;;;;;;0.70;0.50;;;9.60;99.90;;;;;;5055330;28;20411;-73
2023/01/09 03:15:57;;;;;;;0.80;0.60;;;9.60;99.90;;;;;;5074017;28;20457;-73
2023/01/09 03:18:26;;;;;;;0.83;0.73;;;9.50;99.90;;;;;;5071946;28;20416;-73
2023/01/09 03:20:53;;;;;;;0.90;0.70;;;9.30;99.90;;;;;;5073985;28;20470;-73
2023/01/09 03:23:18;;;;;;;0.80;0.50;;;9.40;99.90;;;;;;5074206;28;20413;-73
2023/01/09 03:25:44;;;;;;;0.70;0.50;;;9.50;99.90;;;;;;5055865;28;20408;-73
2023/01/09 03:28:26;;;;;;;0.90;0.57;;;9.50;99.90;;;;;;5073426;28;20187;-73
2023/01/09 03:30:52;;;;;;;0.70;0.40;;;9.40;99.90;;;;;;5073285;28;20215;-73
2023/01/09 03:33:17;;;;;;;0.90;0.60;;;9.40;99.90;;;;;;5054842;28;20788;-73
2023/01/09 03:35:43;;;;;;;0.70;0.50;;;9.60;99.90;;;;;;5055018;28;20185;-74
2023/01/09 03:38:09;;;;;;;1.83;0.60;;;9.50;99.90;;;;;;5073483;28;20164;-73
2023/01/09 03:40:35;;;;;;;0.80;0.50;;;9.30;99.90;;;;;;5072854;28;20454;-74
2023/01/09 03:43:00;;;;;;;0.60;0.40;;;9.30;99.90;;;;;;5072923;28;20162;-74
2023/01/09 03:45:26;;;;;;;0.70;0.53;;;9.50;99.90;;;;;;5072884;28;20644;-74
2023/01/09 03:47:51;;;;;;;1.47;0.50;;;9.50;99.90;;;;;;5054391;28;20175;-74
2023/01/09 03:50:17;;;;;;;0.70;0.50;;;9.70;99.90;;;;;;5072916;28;20231;-73
2023/01/09 03:52:43;;;;;;;0.70;0.50;;;9.80;99.90;;;;;;5055415;28;20607;-73
2023/01/09 03:55:08;;;;;;;0.97;0.40;;;9.90;99.90;;;;;;5073169;28;20192;-74
2023/01/09 03:57:34;;;;;;;1.03;0.50;;;9.90;99.90;;;;;;5073371;28;20178;-75
2023/01/09 03:59:59;;;;;;;7.53;3.70;;;9.90;99.90;;;;;;5055598;28;20183;-74
2023/01/09 04:02:25;;;;;;;2.40;1.47;;;9.70;99.90;;;;;;5073074;28;20184;-74
2023/01/09 04:04:50;;;;;;;0.90;0.50;;;9.60;99.90;;;;;;5073340;28;20625;-74
2023/01/09 04:07:16;;;;;;;1.20;0.50;;;9.50;99.90;;;;;;5073218;28;20566;-74
2023/01/09 04:09:41;;;;;;;1.63;0.50;;;9.60;99.90;;;;;;5072793;28;20204;-73
2023/01/09 04:12:07;;;;;;;0.77;0.57;;;9.30;99.90;;;;;;5055113;28;20655;-73
2023/01/09 04:14:33;;;;;;;1.73;0.40;;;9.20;99.90;;;;;;5072185;28;20247;-73
2023/01/09 04:16:58;;;;;;;1.23;0.50;;;9.10;99.90;;;;;;5071706;28;20535;-73
2023/01/09 04:19:24;;;;;;;0.60;0.40;;;8.90;99.90;;;;;;5073277;28;20184;-73
2023/01/09 04:21:49;;;;;;;0.70;0.40;;;8.80;99.90;;;;;;5073258;28;20188;-73
2023/01/09 04:24:15;;;;;;;1.13;0.73;;;8.80;99.90;;;;;;5073750;28;20533;-73
2023/01/09 04:26:40;;;;;;;0.70;0.50;;;8.80;99.90;;;;;;5073140;28;20170;-73
2023/01/09 04:29:06;;;;;;;0.60;0.40;;;8.90;99.90;;;;;;5072830;28;20284;-73
2023/01/09 04:31:31;;;;;;;1.00;0.60;;;8.80;99.90;;;;;;5072363;28;20211;-72
2023/01/09 04:33:57;;;;;;;0.70;0.40;;;8.70;99.90;;;;;;5072304;28;20179;-73
2023/01/09 04:36:22;;;;;;;0.60;0.40;;;8.80;99.90;;;;;;5072418;28;20175;-73
2023/01/09 04:38:48;;;;;;;0.80;0.50;;;8.80;99.90;;;;;;5072223;28;20200;-73
2023/01/09 04:41:47;;;;;;;0.60;0.40;;;8.60;99.90;;;;;;5072234;28;20207;-72
2023/01/09 04:43:59;;;;;;;1.00;0.50;;;8.50;99.90;;;;;;5071922;28;20553;-74
2023/01/09 04:46:24;;;;;;;1.60;0.50;;;8.50;99.90;;;;;;5053419;28;20410;-74
2023/01/09 04:48:50;;;;;;;0.70;0.50;;;8.40;99.90;;;;;;5072176;28;20663;-73
2023/01/09 04:51:15;;;;;;;1.83;0.50;;;8.50;99.90;;;;;;5072265;28;20191;-73
2023/01/09 04:53:41;;;;;;;1.57;0.40;;;8.40;99.90;;;;;;5071970;28;20644;-74
2023/01/09 04:56:06;;;;;;;0.70;0.43;;;8.40;99.90;;;;;;5067268;28;20165;-74
2023/01/09 04:58:32;;;;;;;0.77;0.40;;;8.60;99.90;;;;;;5032051;28;20544;-73
2023/01/09 05:00:57;;;;;;;1.17;0.83;;;8.30;99.90;;;;;;5034219;28;20201;-74
2023/01/09 05:03:23;;;;;;;1.50;0.60;;;8.30;99.90;;;;;;5031459;28;20169;-73
2023/01/09 05:05:49;;;;;;;0.70;0.40;;;8.20;99.90;;;;;;5014186;28;20177;-73
2023/01/09 05:08:14;;;;;;;0.70;0.40;;;8.30;99.90;;;;;;5032024;28;20171;-73
2023/01/09 05:10:40;;;;;;;1.43;0.40;;;8.30;99.90;;;;;;5031781;28;20219;-74
2023/01/09 05:13:05;;;;;;;0.70;0.50;;;8.30;99.90;;;;;;5032063;28;20164;-74
2023/01/09 05:15:31;;;;;;;0.70;0.50;;;8.50;99.90;;;;;;5047424;28;20174;-73
2023/01/09 05:17:56;;;;;;;0.90;0.60;;;8.30;99.90;;;;;;5060228;28;20235;-73
2023/01/09 05:20:22;;;;;;;1.07;0.50;;;8.30;99.90;;;;;;5071689;28;20278;-73
2023/01/09 05:22:47;;;;;;;0.70;0.40;;;8.30;99.90;;;;;;5071818;28;20176;-73
2023/01/09 05:25:13;;;;;;;1.33;0.60;;;8.40;99.90;;;;;;5071682;28;20169;-73
2023/01/09 05:27:38;;;;;;;1.73;0.57;;;8.40;99.90;;;;;;5054691;28;20241;-74
2023/01/09 05:30:04;;;;;;;1.03;0.50;;;8.40;99.90;;;;;;5075831;28;20284;-74
2023/01/09 05:32:30;;;;;;;1.10;0.60;;;8.50;99.90;;;;;;5075185;28;20176;-73
2023/01/09 05:34:55;;;;;;;0.90;0.60;;;8.60;99.90;;;;;;5075672;28;20833;-74
2023/01/09 05:37:21;;;;;;;1.53;0.60;;;8.60;99.90;;;;;;5076040;28;20172;-74
2023/01/09 05:39:46;;;;;;;1.43;0.53;;;8.50;99.90;;;;;;5058141;28;20218;-73
2023/01/09 05:42:12;;;;;;;1.60;0.90;;;8.50;99.90;;;;;;5073971;28;20225;-74
2023/01/09 05:44:37;;;;;;;1.90;0.60;;;8.00;99.90;;;;;;5057443;28;20192;-74
2023/01/09 05:47:03;;;;;;;3.00;0.67;;;7.80;99.90;;;;;;5075710;28;20186;-73
2023/01/09 05:49:29;;;;;;;1.40;0.90;;;7.80;99.90;;;;;;5073177;28;20188;-73
2023/01/09 05:51:54;;;;;;;4.07;1.03;;;8.00;99.90;;;;;;5075497;28;20161;-73
2023/01/09 05:54:20;;;;;;;1.10;0.60;;;7.90;99.90;;;;;;5057334;28;20657;-73
2023/01/09 05:56:45;;;;;;;0.90;0.63;;;8.00;99.90;;;;;;5056924;28;20510;-73
2023/01/09 05:59:11;;;;;;;3.60;0.87;;;7.80;99.90;;;;;;5076311;28;20515;-73
2023/01/09 06:01:36;;;;;;;2.73;0.80;;;7.60;99.90;;;;;;5075511;28;20193;-73
2023/01/09 06:04:02;;;;;;;1.60;0.90;;;7.70;99.90;;;;;;5075186;28;20262;-74
2023/01/09 06:06:27;;;;;;;1.17;0.87;;;7.70;99.90;;;;;;5075808;28;20647;-72
2023/01/09 06:08:53;;;;;;;1.37;0.77;;;7.60;99.90;;;;;;5075371;28;20192;-73
2023/01/09 06:11:18;;;;;;;2.37;0.80;;;7.60;99.90;;;;;;5074979;28;20669;-74
2023/01/09 06:13:44;;;;;;;0.90;0.60;;;7.70;99.90;;;;;;5075413;28;20208;-74
2023/01/09 06:16:10;;;;;;;2.50;0.50;;;7.70;99.90;;;;;;5075491;28;20166;-74
2023/01/09 06:18:35;;;;;;;1.20;0.70;;;7.50;99.90;;;;;;5055321;28;20181;-74
2023/01/09 06:21:01;;;;;;;1.47;0.90;;;7.60;99.90;;;;;;5075132;28;20192;-73
2023/01/09 06:23:26;;;;;;;1.90;0.63;;;7.60;99.90;;;;;;5075046;28;20508;-73
2023/01/09 06:25:52;;;;;;;1.57;0.70;;;7.50;99.90;;;;;;5055235;28;20186;-72
2023/01/09 06:28:17;;;;;;;0.90;0.60;;;7.50;99.90;;;;;;5054631;28;20179;-73
2023/01/09 06:30:43;;;;;;;1.30;0.60;;;7.30;99.90;;;;;;5054479;28;20284;-73
2023/01/09 06:33:08;;;;;;;2.40;0.67;;;7.30;99.90;;;;;;5054217;28;20177;-73
2023/01/09 06:35:34;;;;;;;1.40;0.70;;;7.40;99.90;;;;;;5054488;28;20171;-70
2023/01/09 06:38:01;;;;;;;1.30;0.90;;;7.30;99.90;;;;;;5036694;28;20223;-72
2023/01/09 06:40:27;;;;;;;2.77;0.90;;;7.20;99.90;;;;;;5053948;28;20270;-74
2023/01/09 06:42:53;;;;;;;1.10;0.70;;;7.30;99.90;;;;;;5054312;28;20986;-74
2023/01/09 06:45:18;;;;;;;1.90;0.80;;;7.30;99.90;;;;;;5055097;28;20172;-74
2023/01/09 06:47:44;;;;;;;2.03;0.70;;;7.40;99.90;;;;;;5060810;28;20216;-74
2023/01/09 06:50:10;;;;;;;1.47;0.80;;;7.40;99.90;;;;;;5056787;28;20580;-73
2023/01/09 06:52:36;;;;;;;0.97;0.70;;;7.40;99.90;;;;;;5057036;28;20208;-74
2023/01/09 06:55:03;;;;;;;1.87;1.03;;;7.40;99.90;;;;;;5074860;28;20724;-73
2023/01/09 06:57:28;;;;;;;1.37;1.00;;;7.50;99.90;;;;;;5074486;28;20403;-74
2023/01/09 06:59:54;;;;;;;1.70;1.13;;;7.50;99.90;;;;;;5054999;28;20461;-74
2023/01/09 07:02:21;;;;;;;1.00;0.87;;;7.50;99.90;;;;;;5056392;28;20168;-74
2023/01/09 07:04:47;;;;;;;1.57;0.90;;;7.50;99.90;;;;;;5054427;28;20185;-73
2023/01/09 07:07:13;;;;;;;3.50;1.13;;;7.50;99.90;;;;;;5054786;28;20490;-74
2023/01/09 07:09:38;;;;;;;1.87;0.80;;;7.60;99.90;;;;;;5050903;28;20199;-74
2023/01/09 07:12:04;;;;;;;1.80;0.70;;;7.60;99.90;;;;;;5054463;28;20464;-73
2023/01/09 07:14:30;;;;;;;2.60;0.90;;;7.60;99.90;;;;;;5054128;28;20248;-73
2023/01/09 07:16:55;;;;;;;2.10;0.90;;;7.60;99.90;;;;;;5054541;28;20178;-72
2023/01/09 07:19:21;;;;;;;2.30;0.80;;;7.70;99.90;;;;;;5060732;28;20221;-72
2023/01/09 07:21:46;;;;;;;2.97;1.20;;;7.70;99.90;;;;;;5074016;28;20252;-72
2023/01/09 07:24:12;;;;;;;2.70;0.83;;;7.60;99.90;;;;;;5056083;28;20555;-73
2023/01/09 07:26:38;;;;;;;1.50;0.60;;;7.50;99.90;;;;;;5074127;28;20246;-72
2023/01/09 07:29:03;;;;;;;1.20;0.80;;;7.40;99.90;;;;;;5055859;28;20193;-72
2023/01/09 07:31:29;;;;;;;2.20;0.73;;;7.40;99.90;;;;;;5073829;28;20576;-73
2023/01/09 07:33:54;;;;;;;3.87;1.00;;;7.30;99.90;;;;;;5055950;28;20172;-72
2023/01/09 07:36:20;;;;;;;1.10;0.70;;;7.30;99.90;;;;;;5073559;28;20536;-73
2023/01/09 07:38:46;;;;;;;1.53;0.80;;;7.20;99.90;;;;;;5073727;28;20171;-72
2023/01/09 07:41:11;;;;;;;3.57;0.83;;;7.20;99.90;;;;;;5073457;28;20261;-73
2023/01/09 07:43:38;;;;;;;3.20;1.10;;;7.30;99.90;;;;;;5073493;28;20196;-72
2023/01/09 07:46:04;;;;;;;1.50;0.80;;;7.20;99.90;;;;;;5073648;28;20163;-72
2023/01/09 07:48:29;;;;;;;2.40;0.80;;;7.20;99.90;;;;;;5073162;28;20773;-72
2023/01/09 07:50:55;;;;;;;2.07;1.10;;;7.30;99.90;;;;;;5072087;28;20451;-72
2023/01/09 07:53:20;;;;;;;1.03;0.73;;;7.30;99.90;;;;;;5073133;28;20172;-73
2023/01/09 07:55:46;;;;;;;2.33;0.90;;;7.20;99.90;;;;;;5073659;28;20189;-72
2023/01/09 07:58:11;;;;;;;2.80;1.00;;;7.10;99.90;;;;;;5073254;28;20173;-72
2023/01/09 08:00:37;;;;;;;1.10;0.90;;;7.10;99.90;;;;;;5073281;28;20549;-73
2023/01/09 08:03:03;;;;;;;2.63;0.83;;;7.00;99.90;;;;;;5073245;28;20197;-72
2023/01/09 08:05:28;;;;;;;1.40;0.70;;;7.00;99.90;;;;;;5072704;28;20173;-75
2023/01/09 08:07:54;;;;;;;2.33;0.93;;;7.10;99.90;;;;;;5073231;28;20162;-71
2023/01/09 08:10:19;;;;;;;2.83;1.00;;;7.00;99.90;;;;;;5073431;28;20202;-73
2023/01/09 08:12:46;;;;;;;1.63;0.90;;;7.00;99.90;;;;;;5055273;28;20166;-73
2023/01/09 08:15:12;;;;;;;4.40;1.10;;;7.00;99.90;;;;;;5072959;28;20193;-73
2023/01/09 08:17:40;;;;;;;4.20;0.93;;;7.00;99.90;;;;;;5072902;28;20417;-73
2023/01/09 08:20:06;;;;;;;3.80;1.30;;;7.00;99.90;;;;;;5071048;28;20194;-73
2023/01/09 08:22:32;;;;;;;3.87;0.97;;;7.10;99.90;;;;;;5072801;28;20408;-73
2023/01/09 08:24:57;;;;;;;1.43;0.97;;;7.10;99.90;;;;;;5072714;28;20401;-73
2023/01/09 08:27:23;;;;;;;1.90;1.00;;;7.20;99.90;;;;;;5054861;28;20269;-74
2023/01/09 08:29:48;;;;;;;4.77;0.83;;;7.30;99.90;;;;;;5072527;28;20217;-74
2023/01/09 08:32:14;;;;;;;2.80;1.20;;;7.30;99.90;;;;;;5073024;28;20214;-74
2023/01/09 08:34:39;;;;;;;3.07;1.70;;;7.40;99.90;;;;;;5072669;28;20171;-73
2023/01/09 08:37:05;;;;;;;1.70;0.80;;;7.50;99.90;;;;;;5055942;28;20178;-73
2023/01/09 08:39:31;;;;;;;3.00;0.97;;;7.50;99.90;;;;;;5073276;28;20170;-73
2023/01/09 08:47:27;;;;;;;2.20;1.20;;;7.40;99.90;;;;;;5072625;28;20933;-73
2023/01/09 08:49:53;;;;;;;3.20;1.23;;;7.40;99.90;;;;;;5071795;28;20457;-72
2023/01/09 08:52:18;;;;;;;2.30;1.20;;;7.40;99.90;;;;;;5072574;28;20410;-74
2023/01/09 08:54:44;;;;;;;2.43;1.00;;;7.50;99.90;;;;;;5072461;28;20220;-74
2023/01/09 08:57:09;;;;;;;2.33;0.90;;;7.50;99.90;;;;;;5072450;28;20176;-74
2023/01/09 08:59:35;;;;;;;3.80;1.30;;;7.50;99.90;;;;;;5069257;28;20645;-73
2023/01/09 09:02:01;;;;;;;3.03;1.10;;;7.60;99.90;;;;;;5034084;28;20175;-74
2023/01/09 09:04:26;;;;;;;2.73;0.97;;;7.70;99.90;;;;;;5051498;28;20467;-71
2023/01/09 09:06:52;;;;;;;2.30;1.13;;;7.70;99.90;;;;;;5052137;28;20221;-73
2023/01/09 09:09:18;;;;;;;3.57;1.00;;;7.70;99.90;;;;;;5035418;28;20658;-73
2023/01/09 09:11:43;;;;;;;4.17;1.00;;;7.80;99.90;;;;;;5032122;28;20161;-72
2023/01/09 09:16:53;;;;;;;3.33;1.27;;;7.80;99.90;;;;;;5032262;28;20636;-73
2023/01/09 09:19:19;;;;;;;2.40;1.10;;;7.80;99.90;;;;;;5018389;28;20500;-73
2023/01/09 09:21:44;;;;;;;4.43;1.00;;;7.80;99.90;;;;;;5034259;28;20184;-73
2023/01/09 09:24:10;;;;;;;3.00;1.07;;;7.90;99.90;;;;;;5051760;28;20165;-74
2023/01/09 09:26:35;;;;;;;5.37;2.10;;;8.00;99.90;;;;;;5051522;28;20285;-72
2023/01/09 09:29:01;;;;;;;2.53;1.00;;;8.00;99.90;;;;;;5058091;28;20224;-73
2023/01/09 09:31:26;;;;;;;4.80;1.30;;;8.10;99.90;;;;;;5053510;28;20290;-73
2023/01/09 09:33:52;;;;;;;1.93;0.90;;;8.20;99.90;;;;;;5071827;28;20166;-73
2023/01/09 09:36:17;;;;;;;1.27;0.73;;;8.20;99.90;;;;;;5071654;28;20165;-73
2023/01/09 09:38:43;;;;;;;1.70;0.90;;;8.30;99.90;;;;;;5071525;28;20178;-73
2023/01/09 09:44:46;;;;;;;2.80;1.23;;;8.20;99.90;;;;;;5071565;28;20240;-73
2023/01/09 09:47:42;;;;;;;4.87;1.20;;;8.30;99.90;;;;;;5053520;28;20909;-73
2023/01/09 09:50:10;;;;;;;6.10;1.13;;;8.50;99.90;;;;;;5071845;28;20983;-73
2023/01/09 09:53:08;;;;;;;3.33;1.20;;;8.50;99.90;;;;;;5071948;28;20408;-73
2023/01/09 09:55:37;;;;;;;2.50;0.97;;;8.70;99.90;;;;;;5055956;28;20406;-73
2023/01/09 09:58:10;;;;;;;5.33;1.10;;;8.90;99.90;;;;;;5070034;28;20926;-71
2023/01/09 10:00:36;;;;;;;4.03;1.40;;;9.30;99.90;;;;;;5071435;28;20442;-73
2023/01/09 10:03:12;;;;;;;1.50;1.00;;;9.50;99.90;;;;;;5071473;28;20400;-73
2023/01/09 10:05:42;;;;;;;2.90;1.00;;;9.40;99.90;;;;;;5071810;28;20161;-73
2023/01/09 10:08:38;;;;;;;2.90;1.00;;;9.40;99.90;;;;;;5072068;28;20388;-73
2023/01/09 10:11:08;;;;;;;4.37;1.10;;;9.60;99.90;;;;;;5036120;28;20451;-73
2023/01/09 10:16:50;;;;;;;5.23;1.40;;;9.60;99.90;;;;;;5074927;28;20419;-74
2023/01/09 10:19:28;;;;;;;3.40;1.10;;;9.70;99.90;;;;;;5056945;28;20407;-73
2023/01/09 10:22:11;;;;;;;2.80;1.03;;;9.50;99.90;;;;;;5056831;28;20493;-73
2023/01/09 10:24:39;;;;;;;3.47;1.50;;;9.50;99.90;;;;;;5056725;28;20399;-73
2023/01/09 10:27:56;;;;;;;1.23;0.80;;;9.60;99.90;;;;;;5074828;28;20493;-73
2023/01/09 10:30:43;;;;;;;4.50;1.40;;;9.90;99.90;;;;;;5067867;28;20511;-74
2023/01/09 10:33:27;;;;;;;2.97;1.03;;;9.80;99.90;;;;;;5074939;28;20491;-73
2023/01/09 10:36:32;;;;;;;4.17;1.37;;;9.60;99.90;;;;;;5074781;28;20364;-74
2023/01/09 10:39:03;;;;;;;2.43;1.00;;;9.70;99.90;;;;;;5057109;28;20498;-74
2023/01/09 10:41:54;;;;;;;3.13;1.20;;;9.70;99.90;;;;;;5075561;28;20461;-72
2023/01/09 10:44:27;;;;;;;2.30;1.10;;;9.50;99.90;;;;;;5065266;28;20409;-74
2023/01/09 10:46:54;;;;;;;4.00;1.67;;;9.30;99.90;;;;;;5056356;28;20500;-74
2023/01/09 10:49:22;;;;;;;4.43;1.47;;;9.40;99.90;;;;;;5074473;28;20445;-71
2023/01/09 10:52:04;;;;;;;3.67;1.20;;;9.60;99.90;;;;;;5074409;28;20396;-73
2023/01/09 10:54:30;;;;;;;2.73;1.17;;;9.60;99.90;;;;;;5056527;28;20409;-73
2023/01/09 10:57:23;;;;;;;2.07;1.00;;;9.60;99.90;;;;;;5074384;28;20750;-72
2023/01/09 10:59:49;;;;;;;1.93;1.10;;;9.80;99.90;;;;;;5073382;28;20189;-73
2023/01/09 11:02:26;;;;;;;2.40;1.00;;;9.90;99.90;;;;;;5073832;28;20485;-72
2023/01/09 11:04:51;;;;;;;3.50;1.53;;;9.80;99.90;;;;;;5074147;28;20392;-72
2023/01/09 11:07:25;;;;;;;2.70;1.10;;;9.60;99.90;;;;;;5074043;28;20416;-73
2023/01/09 11:09:57;;;;;;;2.80;1.13;;;9.70;99.90;;;;;;5062918;28;20244;-72
2023/01/09 11:12:31;;;;;;;6.20;1.53;;;9.60;99.90;;;;;;5036002;28;20414;-72
2023/01/09 11:15:27;;;;;;;3.10;1.50;;;9.30;99.90;;;;;;5037594;28;20499;-73
2023/01/09 11:17:53;;;;;;;3.73;0.87;;;9.40;99.90;;;;;;5032873;28;20989;-74
2023/01/09 11:20:25;;;;;;;5.20;1.40;;;9.60;99.90;;;;;;5054012;28;20894;-74
2023/01/09 11:22:56;;;;;;;4.50;1.53;;;9.70;99.90;;;;;;5054059;28;20401;-73
2023/01/09 11:25:30;;;;;;;3.10;1.20;;;9.80;99.90;;;;;;5053477;28;20384;-73
2023/01/09 11:28:04;;;;;;;12.57;2.03;;;10.00;99.90;;;;;;5035299;28;20412;-73
2023/01/09 11:30:33;;;;;;;6.03;1.70;;;10.20;99.90;;;;;;5071597;28;20946;-73
2023/01/09 11:32:59;;;;;;;2.33;1.10;;;10.40;99.90;;;;;;5073281;28;20823;-72
2023/01/09 11:35:31;;;;;;;5.20;1.60;;;11.10;99.90;;;;;;5055826;28;20415;-72
2023/01/09 11:38:10;;;;;;;5.53;0.93;;;11.50;99.90;;;;;;5073364;28;20795;-73
2023/01/09 11:41:03;;;;;;;2.50;1.20;;;12.20;99.90;;;;;;5073311;28;20424;-72
2023/01/09 11:43:37;;;;;;;2.70;1.00;;;12.50;99.90;;;;;;5069807;28;20410;-73
2023/01/09 11:46:08;;;;;;;3.97;1.43;;;12.20;99.90;;;;;;5072607;28;20392;-73
2023/01/09 11:48:56;;;;;;;3.80;1.40;;;12.00;99.90;;;;;;5073105;28;20413;-73
2023/01/09 11:51:24;;;;;;;4.57;1.83;;;11.40;99.90;;;;;;5073078;28;20456;-73
2023/01/09 11:54:14;;;;;;;1.93;1.20;;;11.60;99.90;;;;;;5072821;28;20405;-73
2023/01/09 11:56:40;;;;;;;1.80;1.13;;;12.70;99.90;;;;;;5072764;28;20438;-73
2023/01/09 11:59:14;;;;;;;4.70;1.73;;;12.60;99.90;;;;;;5053653;28;20802;-73
2023/01/09 12:01:49;;;;;;;3.63;1.57;;;12.20;99.90;;;;;;5073619;28;20440;-73
2023/01/09 12:04:32;;;;;;;4.40;1.50;;;11.50;99.90;;;;;;5072948;28;20411;-73
2023/01/09 12:07:09;;;;;;;2.93;1.50;;;11.10;99.90;;;;;;5073311;28;20395;-73
2023/01/09 12:09:40;;;;;;;4.00;1.47;;;10.70;99.90;;;;;;5072979;28;20461;-74
2023/01/09 12:12:39;;;;;;;2.83;1.10;;;10.90;99.90;;;;;;5073226;28;20423;-73
2023/01/09 12:15:22;;;;;;;5.50;1.63;;;10.90;99.90;;;;;;5072422;28;20423;-72
2023/01/09 12:18:04;;;;;;;4.50;1.37;;;11.10;99.90;;;;;;5073718;28;20383;-73
2023/01/09 12:20:34;;;;;;;3.57;1.17;;;11.10;99.90;;;;;;5073092;28;20424;-73
2023/01/09 12:23:25;;;;;;;3.90;1.30;;;11.10;99.90;;;;;;5073563;28;20443;-74
2023/01/09 12:26:12;;;;;;;2.67;1.10;;;11.20;99.90;;;;;;5073273;28;20380;-73
2023/01/09 12:28:49;;;;;;;1.90;1.00;;;11.50;99.90;;;;;;5071939;28;20536;-73
2023/01/09 12:31:18;;;;;;;3.13;1.30;;;11.70;99.90;;;;;;5055036;28;20465;-73
2023/01/09 12:34:01;;;;;;;1.53;1.10;;;11.60;99.90;;;;;;5073182;28;20406;-73
2023/01/09 12:37:04;;;;;;;3.67;1.23;;;11.60;99.90;;;;;;5073101;28;20753;-74
2023/01/09 12:40:01;;;;;;;3.73;1.37;;;11.50;99.90;;;;;;5071410;28;20421;-73
2023/01/09 12:42:53;;;;;;;2.50;1.13;;;11.40;99.90;;;;;;5055661;28;20903;-74
2023/01/09 12:45:33;;;;;;;4.37;1.13;;;11.40;99.90;;;;;;5072775;28;20411;-74
2023/01/09 12:48:28;;;;;;;2.47;1.50;;;11.20;99.90;;;;;;5073478;28;20793;-72
2023/01/09 12:51:15;;;;;;;3.03;1.40;;;11.00;99.90;;;;;;5020946;28;20436;-73
2023/01/09 12:54:08;;;;;;;3.87;1.73;;;10.90;99.90;;;;;;5072452;28;20381;-73
2023/01/09 12:56:58;;;;;;;3.30;1.50;;;10.80;99.90;;;;;;5072947;28;20391;-72
2023/01/09 12:59:51;;;;;;;2.97;1.10;;;11.00;99.90;;;;;;5070961;28;20539;-72
2023/01/09 13:02:27;;;;;;;3.43;1.27;;;10.80;99.90;;;;;;5072924;28;20889;-74
2023/01/09 13:05:05;;;;;;;1.90;1.00;;;10.80;99.90;;;;;;5073738;28;20797;-74
2023/01/09 13:07:40;;;;;;;5.27;1.53;;;11.00;99.90;;;;;;5071664;28;20799;-73
2023/01/09 13:10:19;;;;;;;3.87;1.23;;;11.20;99.90;;;;;;5049534;28;20456;-74
2023/01/09 13:12:47;;;;;;;4.90;1.33;;;11.50;99.90;;;;;;5051598;28;20393;-74
2023/01/09 13:15:46;;;;;;;1.87;1.13;;;11.50;99.90;;;;;;5051795;28;20468;-74
2023/01/09 13:18:21;;;;;;;1.80;1.10;;;11.50;99.90;;;;;;5052792;28;20959;-75
2023/01/09 13:20:51;;;;;;;3.37;1.20;;;11.30;99.90;;;;;;5034917;28;20426;-74
2023/01/09 13:23:45;;;;;;;1.83;0.80;;;11.30;99.90;;;;;;5051920;28;20455;-74
2023/01/09 13:26:33;;;;;;;4.23;1.30;;;10.90;99.90;;;;;;5043114;28;20443;-73
2023/01/09 13:29:18;;;;;;;2.80;1.10;;;10.80;99.90;;;;;;5060741;28;20458;-73
2023/01/09 13:32:16;;;;;;;2.27;1.17;;;10.80;99.90;;;;;;5072551;28;20400;-73